Data for 02/06/2009

Time Sea-Level Adjusted Pressure Absolute Pressure Temperature Relative Humidity Dew Point   
(mb) (inHg) (mb) (inHg) (C) (F) (%) (C) (F)
00:05 1009 29.8 838 24.75 5 40.9 34 -9.7 14.5
00:10 1009 29.8 838 24.75 4.9 40.8 35 -9.4 15
00:15 1009 29.8 838 24.75 4.7 40.5 34 -9.9 14.2
00:20 1009 29.8 838 24.75 5.2 41.3 34 -9.5 14.8
00:25 1009 29.8 838 24.75 5 40.9 35 -9.4 15.1
00:30 1009 29.8 838 24.75 4.6 40.3 33 -10.4 13.2
00:35 1009 29.8 838 24.75 5.3 41.5 33 -9.7 14.6
00:40 1009 29.8 838 24.75 5.3 41.5 34 -9.3 15.3
00:45 1009 29.8 838 24.75 5.3 41.6 33 -9.8 14.4
00:50 1009 29.8 838 24.75 5.4 41.7 35 -8.9 15.9
00:55 1009 29.8 838 24.75 4.9 40.8 37 -8.6 16.5
01:00 1009 29.8 838 24.75 4.3 39.8 37 -9.2 15.5
01:05 1009 29.8 838 24.75 4.3 39.8 38 -8.8 16.2
01:10 1008 29.77 838 24.75 4.1 39.3 39 -8.8 16.2
01:15 1008 29.77 838 24.75 4.2 39.5 38 -9.1 15.6
01:20 1008 29.77 838 24.75 4.7 40.5 35 -9.5 15
01:25 1008 29.77 838 24.75 4.8 40.7 36 -9 15.9
01:30 1008 29.77 838 24.75 4.6 40.3 35 -9.4 15
01:35 1008 29.77 837 24.72 4.8 40.7 34 -9.7 14.5
01:40 1008 29.77 837 24.72 5 41 32 -10.5 13.1
01:45 1008 29.77 837 24.72 6 42.8 33 -9.3 15.3
01:50 1008 29.77 837 24.72 5.6 42.1 33 -9.5 14.8
01:55 1008 29.77 837 24.72 5.5 41.9 32 -9.8 14.4
02:00 1008 29.77 837 24.72 5.4 41.8 34 -9.2 15.4
02:05 1008 29.77 837 24.72 5.3 41.5 31 -10.5 13.2
02:10 1008 29.77 837 24.72 5.7 42.3 32 -9.6 14.7
02:15 1008 29.77 837 24.72 5.5 41.9 31 -10.3 13.4
02:20 1008 29.77 837 24.72 6.2 43.2 30 -10.1 13.8
02:25 1008 29.77 837 24.72 6.5 43.7 32 -8.9 16
02:30 1008 29.77 837 24.72 6.4 43.5 30 -10 13.9
02:35 1008 29.77 837 24.72 6.8 44.3 32 -8.8 16.2
02:40 1008 29.77 837 24.72 6.6 43.8 31 -9.5 15
02:45 1008 29.77 837 24.72 7.3 45.1 29 -9.5 14.9
02:50 1008 29.77 837 24.72 7.7 45.8 29 -9.1 15.7
02:55 1008 29.77 837 24.72 7.9 46.3 29 -8.9 16
03:00 1008 29.77 837 24.72 7.6 45.7 31 -8.6 16.5
03:05 1007 29.74 837 24.72 7.2 44.9 33 -8.1 17.4
03:10 1007 29.74 837 24.72 6.8 44.2 34 -8 17.5
03:15 1007 29.74 837 24.72 6.6 43.8 35 -7.9 17.8
03:20 1007 29.74 837 24.72 6.6 43.8 35 -7.7 18.1
03:25 1007 29.74 837 24.72 6.4 43.5 37 -7.3 18.9
03:30 1007 29.74 837 24.72 6.4 43.5 37 -7.2 19.1
03:35 1007 29.74 837 24.72 6 42.7 40 -6.5 20.3
03:40 1007 29.74 837 24.72 4 39.2 45 -6.8 19.8
03:45 1007 29.74 837 24.72 3.8 38.8 43 -7.8 17.9
03:50 1007 29.74 837 24.72 4.6 40.3 41 -7.6 18.3
03:55 1007 29.74 837 24.72 4.7 40.5 40 -7.7 18.1
04:00 1007 29.74 836 24.69 5.1 41.1 39 -7.6 18.3
04:05 1007 29.74 836 24.69 5.4 41.8 37 -8 17.5
04:10 1007 29.74 836 24.69 5.8 42.5 36 -8 17.7
04:15 1007 29.74 836 24.69 5.9 42.5 36 -8 17.7
04:20 1007 29.74 836 24.69 6 42.7 37 -7.7 18.1
04:25 1007 29.74 836 24.69 6.1 42.9 37 -7.6 18.4
04:30 1007 29.74 836 24.69 5.8 42.4 37 -7.7 18.1
04:35 1007 29.74 836 24.69 5.8 42.4 38 -7.4 18.7
04:40 1007 29.74 836 24.69 5.6 42.1 39 -7.2 19
04:45 1007 29.74 836 24.69 5.7 42.3 39 -7 19.4
04:50 1007 29.74 836 24.69 5.6 42 40 -6.9 19.6
04:55 1007 29.74 836 24.69 5.1 41.1 42 -6.9 19.7
05:00 1007 29.74 836 24.69 4.6 40.3 42 -7.2 19
05:05 1007 29.74 836 24.69 4.4 40 43 -7.1 19.2
05:10 1007 29.74 836 24.69 4.7 40.4 43 -7 19.4
05:15 1007 29.74 836 24.69 4.7 40.5 42 -7 19.5
05:20 1007 29.74 836 24.69 4.8 40.6 43 -6.7 19.9
05:25 1007 29.74 836 24.69 5.1 41.2 45 -5.9 21.3
05:30 1007 29.74 836 24.69 5.3 41.5 47 -5 23
05:35 1007 29.74 836 24.69 5 41 50 -4.6 23.7
05:40 1007 29.74 836 24.69 4.8 40.6 52 -4.3 24.2
05:45 1007 29.74 836 24.69 4.8 40.7 51 -4.4 24.1
05:50 1007 29.74 836 24.69 4.8 40.7 52 -4.2 24.4
05:55 1006 29.71 836 24.69 4.7 40.5 50 -4.7 23.5
06:00 1006 29.71 836 24.69 5 41 49 -4.7 23.6
06:05 1006 29.71 836 24.69 5 41.1 48 -5 23
06:10 1006 29.71 836 24.69 4.9 40.8 47 -5.5 22.1
06:15 1006 29.71 836 24.69 5 40.9 47 -5.5 22
06:20 1006 29.71 835 24.66 5 41 49 -4.9 23.2
06:25 1006 29.71 835 24.66 4.9 40.8 48 -5.3 22.5
06:30 1006 29.71 835 24.66 4.8 40.7 48 -5.2 22.7
06:35 1006 29.71 835 24.66 4.5 40 47 -5.8 21.5
06:40 1006 29.71 835 24.66 3.8 38.8 48 -6.2 20.9
06:45 1006 29.71 836 24.69 3.6 38.6 53 -5.1 22.7
06:50 1006 29.71 836 24.69 4.3 39.8 48 -5.7 21.8
06:55 1006 29.71 836 24.69 4.1 39.5 50 -5.3 22.5
07:00 1006 29.71 836 24.69 3.9 38.9 52 -5.2 22.6
07:05 1007 29.74 836 24.69 3.5 38.2 53 -5.2 22.7
07:10 1007 29.74 836 24.69 3.2 37.8 53 -5.4 22.3
07:15 1007 29.74 836 24.69 3.4 38.2 54 -5.1 22.8
07:20 1007 29.74 836 24.69 3.2 37.8 54 -5.2 22.7
07:25 1007 29.74 836 24.69 3.2 37.8 54 -5.2 22.6
07:30 1007 29.74 836 24.69 3.3 38 53 -5.3 22.4
07:35 1007 29.74 836 24.69 3.4 38.1 54 -5.1 22.8
07:40 1007 29.74 836 24.69 3.4 38.2 53 -5.2 22.6
07:45 1007 29.74 836 24.69 3.1 37.6 56 -4.9 23.1
07:50 1007 29.74 836 24.69 2.1 35.8 58 -5.2 22.6
07:55 1007 29.74 836 24.69 2.5 36.4 56 -5.3 22.4
08:00 1007 29.74 836 24.69 2.5 36.5 57 -5.1 22.8
08:05 1007 29.74 836 24.69 2.8 37 57 -5 23.1
08:10 1007 29.74 836 24.69 3 37.4 55 -5.1 22.8
08:15 1007 29.74 836 24.69 3.4 38.2 55 -4.8 23.4
08:20 1007 29.74 836 24.69 3.2 37.7 56 -4.8 23.4
08:25 1007 29.74 836 24.69 3 37.3 58 -4.6 23.7
08:30 1007 29.74 836 24.69 1.9 35.4 63 -4.5 23.9
08:35 1007 29.74 837 24.72 1.4 34.6 62 -5 23
08:40 1007 29.74 837 24.72 1.5 34.7 62 -4.9 23.1
08:45 1007 29.74 837 24.72 2.1 35.8 60 -4.7 23.5
08:50 1007 29.74 837 24.72 2.5 36.5 59 -4.7 23.6
08:55 1007 29.74 837 24.72 2.8 37.1 59 -4.5 23.9
09:00 1008 29.77 837 24.72 2.8 37 59 -4.4 24.1
09:05 1008 29.77 837 24.72 2.8 37 59 -4.5 23.8
09:10 1008 29.77 837 24.72 2.4 36.4 60 -4.5 23.9
09:15 1008 29.77 837 24.72 2.3 36.2 61 -4.5 23.8
09:20 1008 29.77 837 24.72 2.3 36.2 60 -4.7 23.6
09:25 1008 29.77 837 24.72 2.6 36.6 59 -4.6 23.7
09:30 1008 29.77 837 24.72 2.9 37.2 59 -4.4 24.1
09:35 1008 29.77 837 24.72 3 37.4 58 -4.5 23.9
09:40 1008 29.77 837 24.72 3 37.4 58 -4.5 23.8
09:45 1008 29.77 837 24.72 3.7 38.6 50 -5.8 21.6
09:50 1008 29.77 837 24.72 4.5 40.2 49 -5.4 22.3
09:55 1008 29.77 837 24.72 4.9 40.8 50 -4.6 23.7
10:00 1008 29.77 837 24.72 4.9 40.8 50 -4.6 23.7
10:05 1008 29.77 837 24.72 4.9 40.8 50 -4.6 23.7
10:10 1008 29.77 837 24.72 4.9 40.8 49 -4.9 23.1
10:15 1008 29.77 838 24.75 4.9 40.9 48 -5.1 22.9
10:20 1008 29.77 838 24.75 5.2 41.3 47 -5.1 22.8
10:25 1009 29.8 838 24.75 5.4 41.7 47 -4.9 23.1
10:30 1009 29.8 838 24.75 5.4 41.7 47 -4.9 23.1
10:35 1009 29.8 838 24.75 5.4 41.8 46 -5.2 22.6
10:40 1009 29.8 838 24.75 5.7 42.3 44 -5.5 22.2
10:45 1009 29.8 838 24.75 6.1 42.9 42 -5.8 21.6
10:50 1009 29.8 838 24.75 6.3 43.3 41 -5.9 21.3
10:55 1009 29.8 838 24.75 5.7 42.3 42 -6 21.1
11:00 1009 29.8 838 24.75 5.6 42 44 -5.8 21.5
11:05 1009 29.8 838 24.75 5.1 41.1 44 -6.2 20.9
11:10 1009 29.8 838 24.75 5.4 41.7 43 -6.1 21.1
11:15 1009 29.8 838 24.75 5.6 42.2 43 -6 21.3
11:20 1009 29.8 838 24.75 5.8 42.4 43 -5.8 21.5
11:25 1009 29.8 838 24.75 5.7 42.2 44 -5.8 21.6
11:30 1009 29.8 838 24.75 5.7 42.3 43 -5.9 21.5
11:35 1009 29.8 838 24.75 5.9 42.7 42 -5.9 21.4
11:40 1009 29.8 838 24.75 5.9 42.6 43 -5.7 21.7
11:45 1009 29.8 838 24.75 5.5 41.9 45 -5.6 21.9
11:50 1009 29.8 838 24.75 5.1 41.2 46 -5.7 21.7
11:55 1009 29.8 838 24.75 5.3 41.6 46 -5.4 22.2
12:00 1009 29.8 838 24.75 5.3 41.6 50 -4.1 24.6
12:05 1009 29.8 838 24.75 5.6 42 53 -3.3 26.1
12:10 1009 29.8 838 24.75 5.1 41.2 56 -3 26.5
12:15 1009 29.8 838 24.75 5.2 41.3 54 -3.3 26.1
12:20 1009 29.8 838 24.75 5.3 41.5 56 -2.8 27
12:25 1009 29.8 838 24.75 5.2 41.4 54 -3.3 26
12:30 1009 29.8 838 24.75 5.4 41.8 54 -3.1 26.4
12:35 1009 29.8 838 24.75 5.5 41.9 55 -2.8 26.9
12:40 1009 29.8 838 24.75 5.4 41.7 57 -2.5 27.5
12:45 1009 29.8 838 24.75 5 41.1 59 -2.3 27.8
12:50 1009 29.8 838 24.75 4.9 40.8 59 -2.4 27.7
12:55 1009 29.8 838 24.75 4.6 40.4 60 -2.4 27.6
13:00 1009 29.8 838 24.75 4.2 39.6 65 -1.8 28.7
13:05 1009 29.8 838 24.75 3.8 38.8 69 -1.3 29.6
13:10 1009 29.8 838 24.75 3.4 38.1 72 -1.2 29.8
13:15 1009 29.8 838 24.75 3.4 38.1 72 -1.2 29.8
13:20 1009 29.8 838 24.75 3.3 38 73 -1 30.3
13:25 1009 29.8 838 24.75 3.3 37.9 75 -0.7 30.7
13:30 1009 29.8 838 24.75 3 37.4 77 -0.6 30.9
13:35 1009 29.8 838 24.75 3 37.4 76 -0.8 30.5
13:40 1009 29.8 838 24.75 3.1 37.6 75 -0.9 30.4
13:45 1009 29.8 838 24.75 3.3 37.9 74 -1 30.2
13:50 1009 29.8 838 24.75 3.5 38.3 71 -1.3 29.7
13:55 1009 29.8 838 24.75 3.9 39 69 -1.4 29.5
14:00 1009 29.8 838 24.75 4.2 39.6 65 -1.7 28.9
14:05 1009 29.8 838 24.75 4.3 39.8 65 -1.8 28.8
14:10 1009 29.8 838 24.75 4.6 40.2 63 -1.9 28.5
14:15 1009 29.8 838 24.75 4.9 40.8 61 -1.9 28.6
14:20 1009 29.8 838 24.75 5 41.1 59 -2.3 27.8
14:25 1009 29.8 838 24.75 5.3 41.6 57 -2.5 27.5
14:30 1009 29.8 838 24.75 5.5 41.9 57 -2.3 27.9
14:35 1009 29.8 838 24.75 5.7 42.3 55 -2.7 27.1
14:40 1009 29.8 838 24.75 5.9 42.7 54 -2.5 27.4
14:45 1009 29.8 838 24.75 6 42.8 54 -2.6 27.3
14:50 1009 29.8 838 24.75 6.1 42.9 53 -2.8 26.9
14:55 1009 29.8 838 24.75 6.1 43 50 -3.7 25.4
15:00 1009 29.8 839 24.78 6.1 42.9 49 -3.9 25.1
15:05 1009 29.8 839 24.78 6.1 43 48 -4.1 24.7
15:10 1009 29.8 839 24.78 6.2 43.1 48 -4.2 24.5
15:15 1009 29.8 839 24.78 6.2 43.1 48 -4 24.8
15:20 1009 29.8 839 24.78 6 42.9 49 -3.9 25
15:25 1010 29.83 839 24.78 5.9 42.6 48 -4.1 24.5
15:30 1010 29.83 839 24.78 5.8 42.5 48 -4.2 24.4
15:35 1010 29.83 839 24.78 5.7 42.3 48 -4.5 23.8
15:40 1010 29.83 839 24.78 5.7 42.2 48 -4.6 23.8
15:45 1010 29.83 839 24.78 5.6 42.1 47 -4.7 23.6
15:50 1010 29.83 839 24.78 5.6 42.2 47 -4.7 23.5
15:55 1010 29.83 839 24.78 5.7 42.2 47 -4.7 23.5
16:00 1010 29.83 839 24.78 5.6 42.2 47 -4.7 23.6
16:05 1010 29.83 839 24.78 5.5 41.8 49 -4.3 24.3
16:10 1010 29.83 839 24.78 5.3 41.5 50 -4.2 24.4
16:15 1010 29.83 839 24.78 5.2 41.3 51 -4.1 24.6
16:20 1010 29.83 839 24.78 5.1 41.2 51 -4.2 24.5
16:25 1010 29.83 839 24.78 4.9 40.9 52 -4.2 24.5
16:30 1010 29.83 839 24.78 5 40.9 51 -4.3 24.2
16:35 1010 29.83 839 24.78 5.2 41.3 50 -4.4 24
16:40 1010 29.83 839 24.78 5.4 41.7 50 -4.2 24.5
16:45 1010 29.83 839 24.78 5.3 41.5 50 -4.3 24.3
16:50 1010 29.83 839 24.78 5.2 41.3 49 -4.6 23.8
16:55 1010 29.83 839 24.78 5.1 41.3 48 -5.1 22.9
17:00 1010 29.83 840 24.81 5.3 41.6 47 -5 23.1
17:05 1010 29.83 840 24.81 5.3 41.5 48 -4.8 23.4
17:10 1010 29.83 840 24.81 5.1 41.2 49 -4.8 23.3
17:15 1010 29.83 840 24.81 5.1 41.2 50 -4.6 23.7
17:20 1011 29.85 840 24.81 4.9 40.7 50 -4.8 23.4
17:25 1011 29.85 840 24.81 4.9 40.8 49 -4.8 23.4
17:30 1011 29.85 840 24.81 4.7 40.5 50 -4.9 23.2
17:35 1011 29.85 840 24.81 4.6 40.3 51 -4.7 23.5
17:40 1011 29.85 840 24.81 4.6 40.2 48 -5.6 22
17:45 1011 29.85 840 24.81 4.7 40.4 47 -5.6 21.9
17:50 1011 29.85 840 24.81 4.8 40.6 46 -5.9 21.3
17:55 1011 29.85 840 24.81 5 41 44 -6.2 20.9
18:00 1011 29.85 840 24.81 5 41 46 -5.6 21.9
18:05 1011 29.85 840 24.81 4.7 40.5 49 -5.1 22.8
18:10 1011 29.85 840 24.81 4.3 39.7 52 -4.7 23.5
18:15 1011 29.85 840 24.81 3.8 38.9 53 -4.8 23.4
18:20 1011 29.85 840 24.81 3.5 38.4 54 -4.9 23.2
18:25 1011 29.85 840 24.81 3.4 38.1 54 -5 23.1
18:30 1011 29.85 840 24.81 3.4 38.1 53 -5.2 22.6
18:35 1011 29.85 840 24.81 3.4 38.2 54 -5.1 22.8
18:40 1011 29.85 840 24.81 3.4 38.1 53 -5.2 22.7
18:45 1011 29.85 840 24.81 3.4 38.2 52 -5.4 22.3
18:50 1011 29.85 840 24.81 3.5 38.4 53 -5.3 22.5
18:55 1011 29.85 840 24.81 3.5 38.3 52 -5.5 22.1
19:00 1011 29.85 840 24.81 3.6 38.5 52 -5.3 22.5
19:05 1011 29.85 840 24.81 3.5 38.3 53 -5.2 22.6
19:10 1011 29.85 840 24.81 3.4 38.1 54 -5.1 22.8
19:15 1011 29.85 841 24.83 3.3 38 53 -5.3 22.5
19:20 1011 29.85 841 24.83 3.3 37.9 55 -5 23
19:25 1011 29.85 841 24.83 3.2 37.7 56 -4.7 23.6
19:30 1011 29.85 841 24.83 3 37.4 56 -5 23.1
19:35 1011 29.85 841 24.83 3 37.4 56 -4.9 23.2
19:40 1012 29.88 841 24.83 2.9 37.3 57 -4.8 23.4
19:45 1012 29.88 841 24.83 2.9 37.2 54 -5.4 22.3
19:50 1012 29.88 841 24.83 3.1 37.6 54 -5.2 22.6
19:55 1012 29.88 841 24.83 2.9 37.2 56 -5.1 22.8
20:00 1012 29.88 841 24.83 2.7 36.9 55 -5.4 22.2
20:05 1012 29.88 841 24.83 2.8 37.1 55 -5.3 22.4
20:10 1012 29.88 841 24.83 2.9 37.3 54 -5.5 22.1
20:15 1012 29.88 841 24.83 3 37.5 53 -5.7 21.8
20:20 1012 29.88 841 24.83 3.1 37.6 54 -5.4 22.2
20:25 1012 29.88 841 24.83 3.1 37.6 54 -5.3 22.4
20:30 1012 29.88 841 24.83 3.1 37.5 54 -5.4 22.2
20:35 1012 29.88 841 24.83 3.2 37.7 53 -5.6 21.9
20:40 1012 29.88 841 24.83 3.3 37.9 51 -5.9 21.3
20:45 1012 29.88 841 24.83 3.4 38.1 51 -5.8 21.5
20:50 1012 29.88 841 24.83 3.4 38.2 51 -5.8 21.6
20:55 1012 29.88 841 24.83 3.4 38.1 50 -6 21.3
21:00 1012 29.88 841 24.83 3.4 38.1 52 -5.6 22
21:05 1012 29.88 841 24.83 3.3 38 51 -5.9 21.5
21:10 1012 29.88 841 24.83 3.5 38.4 50 -6 21.2
21:15 1012 29.88 841 24.83 3.6 38.4 50 -5.8 21.5
21:20 1012 29.88 841 24.83 3.5 38.3 51 -5.7 21.8
21:25 1012 29.88 841 24.83 3.4 38.1 51 -5.7 21.8
21:30 1012 29.88 841 24.83 3.4 38.1 52 -5.6 21.9
21:35 1012 29.88 842 24.86 3.3 37.9 54 -5.2 22.6
21:40 1012 29.88 842 24.86 3.2 37.7 53 -5.4 22.2
21:45 1013 29.91 842 24.86 3.2 37.7 54 -5.3 22.5
21:50 1013 29.91 842 24.86 3.1 37.5 54 -5.3 22.5
21:55 1013 29.91 842 24.86 3.2 37.7 53 -5.5 22.1
22:00 1013 29.91 842 24.86 3.2 37.8 52 -5.6 21.9
22:05 1013 29.91 842 24.86 3.2 37.8 52 -5.7 21.8
22:10 1013 29.91 842 24.86 3.5 38.3 51 -5.6 21.8
22:15 1013 29.91 842 24.86 3.6 38.4 51 -5.6 22
22:20 1013 29.91 842 24.86 3.6 38.4 50 -5.8 21.5
22:25 1013 29.91 842 24.86 3.8 38.9 49 -5.8 21.5
22:30 1013 29.91 842 24.86 4.1 39.3 47 -6.3 20.7
22:35 1013 29.91 842 24.86 4.2 39.5 48 -5.9 21.4
22:40 1013 29.91 843 24.89 4.1 39.4 50 -5.5 22.2
22:45 1013 29.91 843 24.89 4.1 39.5 47 -6.2 20.8
22:50 1013 29.91 843 24.89 4.3 39.7 46 -6.3 20.6
22:55 1014 29.94 843 24.89 4.4 39.9 46 -6.3 20.6
23:00 1014 29.94 843 24.89 4.4 39.9 47 -6 21.2
23:05 1014 29.94 843 24.89 4.3 39.7 46 -6.3 20.7
23:10 1014 29.94 843 24.89 4.3 39.7 45 -6.6 20.1
23:15 1014 29.94 843 24.89 4.3 39.8 47 -5.9 21.4
23:20 1014 29.94 843 24.89 4.3 39.7 48 -5.8 21.6
23:25 1014 29.94 843 24.89 4.1 39.4 49 -5.7 21.8
23:30 1014 29.94 844 24.92 4.1 39.3 48 -6.1 21
23:35 1015 29.97 844 24.92 4.1 39.4 48 -5.9 21.3
23:40 1015 29.97 844 24.92 4.1 39.4 49 -5.6 21.9
23:45 1015 29.97 844 24.92 3.9 39 53 -4.8 23.4
23:50 1015 29.97 844 24.92 3.6 38.5 56 -4.4 24
23:55 1015 29.97 844 24.92 3.5 38.3 56 -4.6 23.7
24:00 1015 29.97 844 24.92 3.5 38.3 55 -4.7 23.6